sensor_id;sensor_type;location;lat;lon;timestamp;temperature;humidity
21823;DHT22;11074;48.596;9.238;2023-05-18T00:01:57;8.30;99.90
21823;DHT22;11074;48.596;9.238;2023-05-18T00:04:23;8.20;99.90
21823;DHT22;11074;48.596;9.238;2023-05-18T00:06:50;8.20;99.90
21823;DHT22;11074;48.596;9.238;2023-05-18T00:09:22;8.10;99.90
21823;DHT22;11074;48.596;9.238;2023-05-18T00:11:51;8.00;99.90
21823;DHT22;11074;48.596;9.238;2023-05-18T00:14:17;7.90;99.90
21823;DHT22;11074;48.596;9.238;2023-05-18T00:16:43;7.80;99.90
21823;DHT22;11074;48.596;9.238;2023-05-18T00:19:09;7.80;99.90
21823;DHT22;11074;48.596;9.238;2023-05-18T00:21:38;7.80;99.90
21823;DHT22;11074;48.596;9.238;2023-05-18T00:24:06;7.90;99.90
21823;DHT22;11074;48.596;9.238;2023-05-18T00:26:32;7.90;99.90
21823;DHT22;11074;48.596;9.238;2023-05-18T00:28:58;7.80;99.90
21823;DHT22;11074;48.596;9.238;2023-05-18T00:31:23;7.90;99.90
21823;DHT22;11074;48.596;9.238;2023-05-18T00:33:49;8.10;99.90
21823;DHT22;11074;48.596;9.238;2023-05-18T00:36:15;8.00;99.90
21823;DHT22;11074;48.596;9.238;2023-05-18T00:38:40;8.10;99.90
21823;DHT22;11074;48.596;9.238;2023-05-18T00:41:06;8.20;99.90
21823;DHT22;11074;48.596;9.238;2023-05-18T00:43:32;8.20;99.90
21823;DHT22;11074;48.596;9.238;2023-05-18T00:45:57;8.30;99.90
21823;DHT22;11074;48.596;9.238;2023-05-18T00:48:23;8.20;99.90
21823;DHT22;11074;48.596;9.238;2023-05-18T00:50:49;8.00;99.90
21823;DHT22;11074;48.596;9.238;2023-05-18T00:53:14;7.80;99.90
21823;DHT22;11074;48.596;9.238;2023-05-18T00:55:40;7.60;99.90
21823;DHT22;11074;48.596;9.238;2023-05-18T00:58:06;7.50;99.90
21823;DHT22;11074;48.596;9.238;2023-05-18T01:00:32;7.50;99.90
21823;DHT22;11074;48.596;9.238;2023-05-18T01:03:02;7.50;99.90
21823;DHT22;11074;48.596;9.238;2023-05-18T01:05:28;7.50;99.90
21823;DHT22;11074;48.596;9.238;2023-05-18T01:07:54;7.50;99.90
21823;DHT22;11074;48.596;9.238;2023-05-18T01:10:20;7.60;99.90
21823;DHT22;11074;48.596;9.238;2023-05-18T01:12:53;7.60;99.90
21823;DHT22;11074;48.596;9.238;2023-05-18T01:15:33;7.60;99.90
21823;DHT22;11074;48.596;9.238;2023-05-18T01:18:33;7.60;99.90
21823;DHT22;11074;48.596;9.238;2023-05-18T01:21:18;7.80;99.90
21823;DHT22;11074;48.596;9.238;2023-05-18T01:26:46;7.90;99.90
21823;DHT22;11074;48.596;9.238;2023-05-18T01:29:16;7.90;99.90
21823;DHT22;11074;48.596;9.238;2023-05-18T01:31:44;8.00;99.90
21823;DHT22;11074;48.596;9.238;2023-05-18T01:34:09;8.10;99.90
21823;DHT22;11074;48.596;9.238;2023-05-18T01:36:35;8.10;99.90
21823;DHT22;11074;48.596;9.238;2023-05-18T01:39:01;8.00;99.90
21823;DHT22;11074;48.596;9.238;2023-05-18T01:41:28;8.00;99.90
21823;DHT22;11074;48.596;9.238;2023-05-18T01:44:18;8.00;99.90
21823;DHT22;11074;48.596;9.238;2023-05-18T01:47:11;8.00;99.90
21823;DHT22;11074;48.596;9.238;2023-05-18T01:49:53;7.90;99.90
21823;DHT22;11074;48.596;9.238;2023-05-18T01:52:31;7.80;99.90
21823;DHT22;11074;48.596;9.238;2023-05-18T01:55:03;7.80;99.90
21823;DHT22;11074;48.596;9.238;2023-05-18T01:57:30;7.70;99.90
21823;DHT22;11074;48.596;9.238;2023-05-18T01:59:58;7.70;99.90
21823;DHT22;11074;48.596;9.238;2023-05-18T02:02:25;7.60;99.90
21823;DHT22;11074;48.596;9.238;2023-05-18T02:04:52;7.70;99.90
21823;DHT22;11074;48.596;9.238;2023-05-18T02:07:17;7.60;99.90
21823;DHT22;11074;48.596;9.238;2023-05-18T02:09:43;7.60;99.90
21823;DHT22;11074;48.596;9.238;2023-05-18T02:12:09;7.50;99.90
21823;DHT22;11074;48.596;9.238;2023-05-18T02:14:36;7.50;99.90
21823;DHT22;11074;48.596;9.238;2023-05-18T02:17:01;7.30;99.90
21823;DHT22;11074;48.596;9.238;2023-05-18T02:19:27;7.10;99.90
21823;DHT22;11074;48.596;9.238;2023-05-18T02:21:55;7.20;99.90
21823;DHT22;11074;48.596;9.238;2023-05-18T02:24:22;7.10;99.90
21823;DHT22;11074;48.596;9.238;2023-05-18T02:26:49;7.10;99.90
21823;DHT22;11074;48.596;9.238;2023-05-18T02:29:17;6.90;99.90
21823;DHT22;11074;48.596;9.238;2023-05-18T02:31:43;7.00;99.90
21823;DHT22;11074;48.596;9.238;2023-05-18T02:34:09;7.00;99.90
21823;DHT22;11074;48.596;9.238;2023-05-18T02:36:34;7.20;99.90
21823;DHT22;11074;48.596;9.238;2023-05-18T02:39:08;7.30;99.90
21823;DHT22;11074;48.596;9.238;2023-05-18T02:41:35;7.40;99.90
21823;DHT22;11074;48.596;9.238;2023-05-18T02:44:02;7.50;99.90
21823;DHT22;11074;48.596;9.238;2023-05-18T02:46:28;7.50;99.90
21823;DHT22;11074;48.596;9.238;2023-05-18T02:48:54;7.40;99.90
21823;DHT22;11074;48.596;9.238;2023-05-18T02:51:19;7.30;99.90
21823;DHT22;11074;48.596;9.238;2023-05-18T02:53:50;7.30;99.90
21823;DHT22;11074;48.596;9.238;2023-05-18T02:56:16;7.20;99.90
21823;DHT22;11074;48.596;9.238;2023-05-18T02:58:43;7.30;99.90
21823;DHT22;11074;48.596;9.238;2023-05-18T03:01:09;7.20;99.90
21823;DHT22;11074;48.596;9.238;2023-05-18T03:03:39;7.10;99.90
21823;DHT22;11074;48.596;9.238;2023-05-18T03:06:07;7.10;99.90
21823;DHT22;11074;48.596;9.238;2023-05-18T03:08:34;7.10;99.90
21823;DHT22;11074;48.596;9.238;2023-05-18T03:11:01;7.00;99.90
21823;DHT22;11074;48.596;9.238;2023-05-18T03:13:27;6.90;99.90
21823;DHT22;11074;48.596;9.238;2023-05-18T03:15:53;6.80;99.90
21823;DHT22;11074;48.596;9.238;2023-05-18T03:18:21;6.70;99.90
21823;DHT22;11074;48.596;9.238;2023-05-18T03:20:47;6.80;99.90
21823;DHT22;11074;48.596;9.238;2023-05-18T03:23:16;6.80;99.90
21823;DHT22;11074;48.596;9.238;2023-05-18T03:25:43;6.90;99.90
21823;DHT22;11074;48.596;9.238;2023-05-18T03:28:09;6.70;99.90
21823;DHT22;11074;48.596;9.238;2023-05-18T03:30:35;6.70;99.90
21823;DHT22;11074;48.596;9.238;2023-05-18T03:33:01;6.70;99.90
21823;DHT22;11074;48.596;9.238;2023-05-18T03:35:27;6.70;99.90
21823;DHT22;11074;48.596;9.238;2023-05-18T03:37:53;6.70;99.90
21823;DHT22;11074;48.596;9.238;2023-05-18T03:40:19;6.70;99.90
21823;DHT22;11074;48.596;9.238;2023-05-18T03:42:46;6.70;99.90
21823;DHT22;11074;48.596;9.238;2023-05-18T03:45:12;6.60;99.90
21823;DHT22;11074;48.596;9.238;2023-05-18T03:47:38;6.70;99.90
21823;DHT22;11074;48.596;9.238;2023-05-18T03:50:06;6.80;99.90
21823;DHT22;11074;48.596;9.238;2023-05-18T03:52:33;6.80;99.90
21823;DHT22;11074;48.596;9.238;2023-05-18T03:55:02;6.80;99.90
21823;DHT22;11074;48.596;9.238;2023-05-18T03:57:29;6.80;99.90
21823;DHT22;11074;48.596;9.238;2023-05-18T03:59:56;6.70;99.90
21823;DHT22;11074;48.596;9.238;2023-05-18T04:02:23;6.70;99.90
21823;DHT22;11074;48.596;9.238;2023-05-18T04:04:49;6.70;99.90
21823;DHT22;11074;48.596;9.238;2023-05-18T04:07:18;6.60;99.90
21823;DHT22;11074;48.596;9.238;2023-05-18T04:09:47;6.40;99.90
21823;DHT22;11074;48.596;9.238;2023-05-18T04:12:13;6.30;99.90
21823;DHT22;11074;48.596;9.238;2023-05-18T04:14:39;6.10;99.90
21823;DHT22;11074;48.596;9.238;2023-05-18T04:17:08;6.10;99.90
21823;DHT22;11074;48.596;9.238;2023-05-18T04:19:34;6.10;99.90
21823;DHT22;11074;48.596;9.238;2023-05-18T04:22:02;6.20;99.90
21823;DHT22;11074;48.596;9.238;2023-05-18T04:24:32;6.30;99.90
21823;DHT22;11074;48.596;9.238;2023-05-18T04:27:00;6.50;99.90
21823;DHT22;11074;48.596;9.238;2023-05-18T04:29:33;6.70;99.90
21823;DHT22;11074;48.596;9.238;2023-05-18T04:31:59;7.00;99.90
21823;DHT22;11074;48.596;9.238;2023-05-18T04:34:28;7.10;99.90
21823;DHT22;11074;48.596;9.238;2023-05-18T04:37:00;7.00;99.90
21823;DHT22;11074;48.596;9.238;2023-05-18T04:39:27;7.00;99.90
21823;DHT22;11074;48.596;9.238;2023-05-18T04:41:53;7.00;99.90
21823;DHT22;11074;48.596;9.238;2023-05-18T04:44:26;6.90;99.90
21823;DHT22;11074;48.596;9.238;2023-05-18T04:46:53;6.90;99.90
21823;DHT22;11074;48.596;9.238;2023-05-18T04:49:19;7.00;99.90
21823;DHT22;11074;48.596;9.238;2023-05-18T04:51:53;7.00;99.90
21823;DHT22;11074;48.596;9.238;2023-05-18T04:54:22;7.00;99.90
21823;DHT22;11074;48.596;9.238;2023-05-18T04:56:49;7.10;99.90
21823;DHT22;11074;48.596;9.238;2023-05-18T04:59:15;7.00;99.90
21823;DHT22;11074;48.596;9.238;2023-05-18T05:01:41;7.00;99.90
21823;DHT22;11074;48.596;9.238;2023-05-18T05:04:07;6.90;99.90
21823;DHT22;11074;48.596;9.238;2023-05-18T05:06:32;6.90;99.90
21823;DHT22;11074;48.596;9.238;2023-05-18T05:08:58;6.80;99.90
21823;DHT22;11074;48.596;9.238;2023-05-18T05:11:24;6.80;99.90
21823;DHT22;11074;48.596;9.238;2023-05-18T05:13:50;6.90;99.90
21823;DHT22;11074;48.596;9.238;2023-05-18T05:16:15;6.90;99.90
21823;DHT22;11074;48.596;9.238;2023-05-18T05:18:41;6.70;99.90
21823;DHT22;11074;48.596;9.238;2023-05-18T05:21:08;6.80;99.90
21823;DHT22;11074;48.596;9.238;2023-05-18T05:23:34;6.90;99.90
21823;DHT22;11074;48.596;9.238;2023-05-18T05:26:00;7.10;99.90
21823;DHT22;11074;48.596;9.238;2023-05-18T05:28:26;7.30;99.90
21823;DHT22;11074;48.596;9.238;2023-05-18T05:30:51;7.20;99.90
21823;DHT22;11074;48.596;9.238;2023-05-18T05:33:17;7.20;99.90
21823;DHT22;11074;48.596;9.238;2023-05-18T05:35:43;7.30;99.90
21823;DHT22;11074;48.596;9.238;2023-05-18T05:38:09;7.40;99.90
21823;DHT22;11074;48.596;9.238;2023-05-18T05:40:35;7.20;99.90
21823;DHT22;11074;48.596;9.238;2023-05-18T05:43:00;7.10;99.90
21823;DHT22;11074;48.596;9.238;2023-05-18T05:45:26;7.10;99.90
21823;DHT22;11074;48.596;9.238;2023-05-18T05:47:54;7.10;99.90
21823;DHT22;11074;48.596;9.238;2023-05-18T05:50:20;7.20;99.90
21823;DHT22;11074;48.596;9.238;2023-05-18T05:52:46;7.30;99.90
21823;DHT22;11074;48.596;9.238;2023-05-18T05:55:12;7.50;99.90
21823;DHT22;11074;48.596;9.238;2023-05-18T05:57:37;7.60;99.90
21823;DHT22;11074;48.596;9.238;2023-05-18T06:00:08;7.70;99.90
21823;DHT22;11074;48.596;9.238;2023-05-18T06:02:36;7.80;99.90
21823;DHT22;11074;48.596;9.238;2023-05-18T06:05:02;7.90;99.90
21823;DHT22;11074;48.596;9.238;2023-05-18T06:07:27;8.00;99.90
21823;DHT22;11074;48.596;9.238;2023-05-18T06:09:54;8.20;99.90
21823;DHT22;11074;48.596;9.238;2023-05-18T06:12:20;8.30;99.90
21823;DHT22;11074;48.596;9.238;2023-05-18T06:14:46;8.40;99.90
21823;DHT22;11074;48.596;9.238;2023-05-18T06:17:11;8.40;99.90
21823;DHT22;11074;48.596;9.238;2023-05-18T06:19:37;8.50;99.90
21823;DHT22;11074;48.596;9.238;2023-05-18T06:22:03;8.50;99.90
21823;DHT22;11074;48.596;9.238;2023-05-18T06:24:29;8.60;99.90
21823;DHT22;11074;48.596;9.238;2023-05-18T06:26:54;8.70;99.90
21823;DHT22;11074;48.596;9.238;2023-05-18T06:29:20;8.70;99.90
21823;DHT22;11074;48.596;9.238;2023-05-18T06:31:46;8.80;99.90
21823;DHT22;11074;48.596;9.238;2023-05-18T06:34:12;8.90;99.90
21823;DHT22;11074;48.596;9.238;2023-05-18T06:36:37;9.00;99.90
21823;DHT22;11074;48.596;9.238;2023-05-18T06:39:03;9.10;99.90
21823;DHT22;11074;48.596;9.238;2023-05-18T06:41:30;9.10;99.90
21823;DHT22;11074;48.596;9.238;2023-05-18T06:43:56;9.20;99.90
21823;DHT22;11074;48.596;9.238;2023-05-18T06:46:25;9.30;99.90
21823;DHT22;11074;48.596;9.238;2023-05-18T06:48:51;9.30;99.90
21823;DHT22;11074;48.596;9.238;2023-05-18T06:51:17;9.40;99.90
21823;DHT22;11074;48.596;9.238;2023-05-18T06:53:43;9.50;99.90
21823;DHT22;11074;48.596;9.238;2023-05-18T06:56:09;9.60;99.90
21823;DHT22;11074;48.596;9.238;2023-05-18T06:58:40;9.60;99.90
21823;DHT22;11074;48.596;9.238;2023-05-18T07:01:06;9.70;99.90
21823;DHT22;11074;48.596;9.238;2023-05-18T07:03:32;9.70;99.90
21823;DHT22;11074;48.596;9.238;2023-05-18T07:05:58;9.80;99.90
21823;DHT22;11074;48.596;9.238;2023-05-18T07:08:24;9.90;99.90
21823;DHT22;11074;48.596;9.238;2023-05-18T07:10:50;10.00;99.90
21823;DHT22;11074;48.596;9.238;2023-05-18T07:13:17;10.10;99.90
21823;DHT22;11074;48.596;9.238;2023-05-18T07:15:43;10.20;99.90
21823;DHT22;11074;48.596;9.238;2023-05-18T07:18:09;10.20;99.90
21823;DHT22;11074;48.596;9.238;2023-05-18T07:20:35;10.30;99.90
21823;DHT22;11074;48.596;9.238;2023-05-18T07:23:01;10.40;99.90
21823;DHT22;11074;48.596;9.238;2023-05-18T07:25:27;10.50;99.90
21823;DHT22;11074;48.596;9.238;2023-05-18T07:27:53;10.50;99.90
21823;DHT22;11074;48.596;9.238;2023-05-18T07:30:19;10.60;99.90
21823;DHT22;11074;48.596;9.238;2023-05-18T07:32:46;10.70;99.90
21823;DHT22;11074;48.596;9.238;2023-05-18T07:35:11;10.80;99.90
21823;DHT22;11074;48.596;9.238;2023-05-18T07:37:37;10.80;99.90
21823;DHT22;11074;48.596;9.238;2023-05-18T07:40:04;11.00;99.90
21823;DHT22;11074;48.596;9.238;2023-05-18T07:42:30;11.10;99.90
21823;DHT22;11074;48.596;9.238;2023-05-18T07:44:58;11.10;99.90
21823;DHT22;11074;48.596;9.238;2023-05-18T07:47:23;11.20;99.90
21823;DHT22;11074;48.596;9.238;2023-05-18T07:49:49;11.20;99.90
21823;DHT22;11074;48.596;9.238;2023-05-18T07:52:15;11.30;99.90
21823;DHT22;11074;48.596;9.238;2023-05-18T07:54:41;11.40;99.90
21823;DHT22;11074;48.596;9.238;2023-05-18T07:57:07;11.40;99.90
21823;DHT22;11074;48.596;9.238;2023-05-18T07:59:32;11.50;99.90
21823;DHT22;11074;48.596;9.238;2023-05-18T08:01:58;11.60;99.90
21823;DHT22;11074;48.596;9.238;2023-05-18T08:04:26;11.60;99.90
21823;DHT22;11074;48.596;9.238;2023-05-18T08:06:52;11.70;99.90
21823;DHT22;11074;48.596;9.238;2023-05-18T08:09:20;11.70;99.90
21823;DHT22;11074;48.596;9.238;2023-05-18T08:11:49;11.80;99.90
21823;DHT22;11074;48.596;9.238;2023-05-18T08:14:15;11.90;99.90
21823;DHT22;11074;48.596;9.238;2023-05-18T08:16:41;12.00;99.90
21823;DHT22;11074;48.596;9.238;2023-05-18T08:19:07;12.00;99.90
21823;DHT22;11074;48.596;9.238;2023-05-18T08:21:42;12.10;99.90
21823;DHT22;11074;48.596;9.238;2023-05-18T08:24:11;12.20;99.90
21823;DHT22;11074;48.596;9.238;2023-05-18T08:26:37;12.20;99.90
21823;DHT22;11074;48.596;9.238;2023-05-18T08:29:03;12.40;99.90
21823;DHT22;11074;48.596;9.238;2023-05-18T08:31:41;12.40;99.90
21823;DHT22;11074;48.596;9.238;2023-05-18T08:34:13;12.40;99.90
21823;DHT22;11074;48.596;9.238;2023-05-18T08:36:38;12.50;99.90
21823;DHT22;11074;48.596;9.238;2023-05-18T08:39:05;12.60;99.90
21823;DHT22;11074;48.596;9.238;2023-05-18T08:41:35;12.60;99.90
21823;DHT22;11074;48.596;9.238;2023-05-18T08:44:10;12.60;99.90
21823;DHT22;11074;48.596;9.238;2023-05-18T08:46:41;12.70;99.90
21823;DHT22;11074;48.596;9.238;2023-05-18T08:49:16;12.70;99.90
21823;DHT22;11074;48.596;9.238;2023-05-18T08:51:45;12.80;99.90
21823;DHT22;11074;48.596;9.238;2023-05-18T08:54:20;12.90;99.90
21823;DHT22;11074;48.596;9.238;2023-05-18T08:56:47;12.90;99.90
21823;DHT22;11074;48.596;9.238;2023-05-18T08:59:22;12.90;99.90
21823;DHT22;11074;48.596;9.238;2023-05-18T09:01:50;13.10;99.90
21823;DHT22;11074;48.596;9.238;2023-05-18T09:04:17;13.20;99.90
21823;DHT22;11074;48.596;9.238;2023-05-18T09:06:45;13.30;99.90
21823;DHT22;11074;48.596;9.238;2023-05-18T09:09:13;13.50;99.90
21823;DHT22;11074;48.596;9.238;2023-05-18T09:11:40;13.60;99.90
21823;DHT22;11074;48.596;9.238;2023-05-18T09:14:06;13.80;99.90
21823;DHT22;11074;48.596;9.238;2023-05-18T09:16:32;13.90;99.90
21823;DHT22;11074;48.596;9.238;2023-05-18T09:18:58;13.90;99.90
21823;DHT22;11074;48.596;9.238;2023-05-18T09:21:24;14.00;99.90
21823;DHT22;11074;48.596;9.238;2023-05-18T09:23:50;14.00;99.90
21823;DHT22;11074;48.596;9.238;2023-05-18T09:26:18;14.10;99.90
21823;DHT22;11074;48.596;9.238;2023-05-18T09:28:45;14.20;99.90
21823;DHT22;11074;48.596;9.238;2023-05-18T09:31:17;14.20;99.90
21823;DHT22;11074;48.596;9.238;2023-05-18T09:33:45;14.20;99.90
21823;DHT22;11074;48.596;9.238;2023-05-18T09:36:13;14.30;99.90
21823;DHT22;11074;48.596;9.238;2023-05-18T09:38:43;14.50;99.90
21823;DHT22;11074;48.596;9.238;2023-05-18T09:41:17;14.50;99.90
21823;DHT22;11074;48.596;9.238;2023-05-18T09:43:44;14.60;99.90
21823;DHT22;11074;48.596;9.238;2023-05-18T09:46:12;14.60;99.90
21823;DHT22;11074;48.596;9.238;2023-05-18T09:48:43;14.60;99.90
21823;DHT22;11074;48.596;9.238;2023-05-18T09:51:12;14.70;99.90
21823;DHT22;11074;48.596;9.238;2023-05-18T09:53:41;14.70;99.90
21823;DHT22;11074;48.596;9.238;2023-05-18T09:56:34;14.70;99.90
21823;DHT22;11074;48.596;9.238;2023-05-18T09:59:11;14.80;99.90
21823;DHT22;11074;48.596;9.238;2023-05-18T10:01:58;15.00;99.90
21823;DHT22;11074;48.596;9.238;2023-05-18T10:07:13;15.20;99.90
21823;DHT22;11074;48.596;9.238;2023-05-18T10:09:41;15.20;99.90
21823;DHT22;11074;48.596;9.238;2023-05-18T10:12:17;15.10;99.90
21823;DHT22;11074;48.596;9.238;2023-05-18T10:14:48;15.20;99.90
21823;DHT22;11074;48.596;9.238;2023-05-18T10:17:14;15.20;99.90
21823;DHT22;11074;48.596;9.238;2023-05-18T10:19:41;15.30;99.90
21823;DHT22;11074;48.596;9.238;2023-05-18T10:22:08;15.40;99.90
21823;DHT22;11074;48.596;9.238;2023-05-18T10:24:38;15.50;99.90
21823;DHT22;11074;48.596;9.238;2023-05-18T10:27:08;15.50;99.90
21823;DHT22;11074;48.596;9.238;2023-05-18T10:29:35;15.60;99.90
21823;DHT22;11074;48.596;9.238;2023-05-18T10:32:04;15.60;99.90
21823;DHT22;11074;48.596;9.238;2023-05-18T10:34:31;15.70;99.90
21823;DHT22;11074;48.596;9.238;2023-05-18T10:37:00;15.80;99.90
21823;DHT22;11074;48.596;9.238;2023-05-18T10:39:31;15.80;99.90
21823;DHT22;11074;48.596;9.238;2023-05-18T10:41:59;15.80;99.90
21823;DHT22;11074;48.596;9.238;2023-05-18T10:44:27;15.60;99.90
21823;DHT22;11074;48.596;9.238;2023-05-18T10:46:54;15.70;99.90
21823;DHT22;11074;48.596;9.238;2023-05-18T10:49:24;15.90;99.90
21823;DHT22;11074;48.596;9.238;2023-05-18T10:51:53;16.00;99.90
21823;DHT22;11074;48.596;9.238;2023-05-18T10:54:20;16.20;99.90
21823;DHT22;11074;48.596;9.238;2023-05-18T10:56:51;16.30;99.90
21823;DHT22;11074;48.596;9.238;2023-05-18T10:59:18;16.40;99.90
21823;DHT22;11074;48.596;9.238;2023-05-18T11:01:46;16.60;99.90
21823;DHT22;11074;48.596;9.238;2023-05-18T11:04:20;16.70;99.90
21823;DHT22;11074;48.596;9.238;2023-05-18T11:06:54;16.90;99.90
21823;DHT22;11074;48.596;9.238;2023-05-18T11:09:22;16.90;99.90
21823;DHT22;11074;48.596;9.238;2023-05-18T11:11:53;17.00;99.90
21823;DHT22;11074;48.596;9.238;2023-05-18T11:14:26;17.20;99.90
21823;DHT22;11074;48.596;9.238;2023-05-18T11:17:34;17.30;99.90
21823;DHT22;11074;48.596;9.238;2023-05-18T11:22:50;17.80;99.90
21823;DHT22;11074;48.596;9.238;2023-05-18T11:25:37;17.90;99.90
21823;DHT22;11074;48.596;9.238;2023-05-18T11:28:05;17.80;99.90
21823;DHT22;11074;48.596;9.238;2023-05-18T11:33:12;17.80;99.90
21823;DHT22;11074;48.596;9.238;2023-05-18T11:36:09;17.60;99.90
21823;DHT22;11074;48.596;9.238;2023-05-18T11:39:02;17.70;99.90
21823;DHT22;11074;48.596;9.238;2023-05-18T11:41:33;18.10;99.90
21823;DHT22;11074;48.596;9.238;2023-05-18T11:46:55;18.00;99.90
21823;DHT22;11074;48.596;9.238;2023-05-18T11:49:50;18.00;99.90
21823;DHT22;11074;48.596;9.238;2023-05-18T11:52:22;18.10;99.90
21823;DHT22;11074;48.596;9.238;2023-05-18T11:57:18;17.80;99.90
21823;DHT22;11074;48.596;9.238;2023-05-18T11:59:52;17.70;99.90
21823;DHT22;11074;48.596;9.238;2023-05-18T12:02:31;17.80;99.90
21823;DHT22;11074;48.596;9.238;2023-05-18T12:04:59;18.10;99.90
21823;DHT22;11074;48.596;9.238;2023-05-18T12:07:28;18.30;99.90
21823;DHT22;11074;48.596;9.238;2023-05-18T12:09:57;18.50;99.90
21823;DHT22;11074;48.596;9.238;2023-05-18T12:12:26;18.90;99.90
21823;DHT22;11074;48.596;9.238;2023-05-18T12:14:54;19.00;99.90
21823;DHT22;11074;48.596;9.238;2023-05-18T12:17:22;18.70;99.90
21823;DHT22;11074;48.596;9.238;2023-05-18T12:19:49;18.70;99.90
21823;DHT22;11074;48.596;9.238;2023-05-18T12:22:15;18.70;99.90
21823;DHT22;11074;48.596;9.238;2023-05-18T12:24:42;19.10;99.90
21823;DHT22;11074;48.596;9.238;2023-05-18T12:27:10;19.10;99.90
21823;DHT22;11074;48.596;9.238;2023-05-18T12:29:40;19.00;99.90
21823;DHT22;11074;48.596;9.238;2023-05-18T12:32:08;19.40;99.90
21823;DHT22;11074;48.596;9.238;2023-05-18T12:34:35;19.80;99.90
21823;DHT22;11074;48.596;9.238;2023-05-18T12:37:01;19.90;99.90
21823;DHT22;11074;48.596;9.238;2023-05-18T12:39:28;19.60;99.90
21823;DHT22;11074;48.596;9.238;2023-05-18T12:41:54;19.20;99.90
21823;DHT22;11074;48.596;9.238;2023-05-18T12:44:33;19.10;99.90
21823;DHT22;11074;48.596;9.238;2023-05-18T12:46:58;19.40;99.90
21823;DHT22;11074;48.596;9.238;2023-05-18T12:49:24;19.80;99.90
21823;DHT22;11074;48.596;9.238;2023-05-18T12:51:54;20.10;99.90
21823;DHT22;11074;48.596;9.238;2023-05-18T12:54:27;19.90;99.90
21823;DHT22;11074;48.596;9.238;2023-05-18T12:56:55;19.80;99.90
21823;DHT22;11074;48.596;9.238;2023-05-18T12:59:25;19.40;99.90
21823;DHT22;11074;48.596;9.238;2023-05-18T13:01:53;19.10;99.90
21823;DHT22;11074;48.596;9.238;2023-05-18T13:04:19;19.00;99.90
21823;DHT22;11074;48.596;9.238;2023-05-18T13:06:45;19.10;99.90
21823;DHT22;11074;48.596;9.238;2023-05-18T13:09:13;18.90;99.90
21823;DHT22;11074;48.596;9.238;2023-05-18T13:11:40;18.80;99.90
21823;DHT22;11074;48.596;9.238;2023-05-18T13:14:11;18.60;99.90
21823;DHT22;11074;48.596;9.238;2023-05-18T13:16:40;18.40;99.90
21823;DHT22;11074;48.596;9.238;2023-05-18T13:19:09;18.30;99.90
21823;DHT22;11074;48.596;9.238;2023-05-18T13:21:36;18.20;99.90
21823;DHT22;11074;48.596;9.238;2023-05-18T13:24:03;18.50;99.90
21823;DHT22;11074;48.596;9.238;2023-05-18T13:26:29;19.20;99.90
21823;DHT22;11074;48.596;9.238;2023-05-18T13:28:56;19.50;99.90
21823;DHT22;11074;48.596;9.238;2023-05-18T13:31:22;19.20;99.90
21823;DHT22;11074;48.596;9.238;2023-05-18T13:33:49;18.80;99.90
21823;DHT22;11074;48.596;9.238;2023-05-18T13:36:16;18.60;99.90
21823;DHT22;11074;48.596;9.238;2023-05-18T13:38:42;18.40;99.90
21823;DHT22;11074;48.596;9.238;2023-05-18T13:41:09;18.40;99.90
21823;DHT22;11074;48.596;9.238;2023-05-18T13:43:36;18.40;99.90
21823;DHT22;11074;48.596;9.238;2023-05-18T13:46:03;18.50;99.90
21823;DHT22;11074;48.596;9.238;2023-05-18T13:48:29;18.60;99.90
21823;DHT22;11074;48.596;9.238;2023-05-18T13:51:06;18.60;99.90
21823;DHT22;11074;48.596;9.238;2023-05-18T13:53:53;18.90;99.90
21823;DHT22;11074;48.596;9.238;2023-05-18T13:56:28;19.10;99.90
21823;DHT22;11074;48.596;9.238;2023-05-18T13:58:56;19.20;99.90
21823;DHT22;11074;48.596;9.238;2023-05-18T14:01:22;19.30;99.90
21823;DHT22;11074;48.596;9.238;2023-05-18T14:03:48;19.20;99.90
21823;DHT22;11074;48.596;9.238;2023-05-18T14:06:13;19.00;99.90
21823;DHT22;11074;48.596;9.238;2023-05-18T14:08:39;18.70;99.90
21823;DHT22;11074;48.596;9.238;2023-05-18T14:11:05;18.60;99.90
21823;DHT22;11074;48.596;9.238;2023-05-18T14:13:30;18.40;99.90
21823;DHT22;11074;48.596;9.238;2023-05-18T14:15:56;18.30;99.90
21823;DHT22;11074;48.596;9.238;2023-05-18T14:18:25;18.50;99.90
21823;DHT22;11074;48.596;9.238;2023-05-18T14:20:51;18.70;99.90
21823;DHT22;11074;48.596;9.238;2023-05-18T14:23:17;18.50;99.90
21823;DHT22;11074;48.596;9.238;2023-05-18T14:25:43;18.30;99.90
21823;DHT22;11074;48.596;9.238;2023-05-18T14:28:10;18.20;99.90
21823;DHT22;11074;48.596;9.238;2023-05-18T14:30:36;18.00;99.90
21823;DHT22;11074;48.596;9.238;2023-05-18T14:33:01;18.00;99.90
21823;DHT22;11074;48.596;9.238;2023-05-18T14:35:27;17.90;99.90
21823;DHT22;11074;48.596;9.238;2023-05-18T14:37:52;17.90;99.90
21823;DHT22;11074;48.596;9.238;2023-05-18T14:40:18;17.80;99.90
21823;DHT22;11074;48.596;9.238;2023-05-18T14:42:44;17.80;99.90
21823;DHT22;11074;48.596;9.238;2023-05-18T14:45:10;17.70;99.90
21823;DHT22;11074;48.596;9.238;2023-05-18T14:47:35;17.60;99.90
21823;DHT22;11074;48.596;9.238;2023-05-18T14:50:01;17.50;99.90
21823;DHT22;11074;48.596;9.238;2023-05-18T14:52:27;17.40;99.90
21823;DHT22;11074;48.596;9.238;2023-05-18T14:54:52;17.40;99.90
21823;DHT22;11074;48.596;9.238;2023-05-18T14:57:18;17.30;99.90
21823;DHT22;11074;48.596;9.238;2023-05-18T14:59:44;17.30;99.90
21823;DHT22;11074;48.596;9.238;2023-05-18T15:02:09;17.20;99.90
21823;DHT22;11074;48.596;9.238;2023-05-18T15:04:35;17.30;99.90
21823;DHT22;11074;48.596;9.238;2023-05-18T15:07:01;17.30;99.90
21823;DHT22;11074;48.596;9.238;2023-05-18T15:09:26;17.30;99.90
21823;DHT22;11074;48.596;9.238;2023-05-18T15:11:52;17.30;99.90
21823;DHT22;11074;48.596;9.238;2023-05-18T15:14:18;17.30;99.90
21823;DHT22;11074;48.596;9.238;2023-05-18T15:16:44;17.30;99.90
21823;DHT22;11074;48.596;9.238;2023-05-18T15:19:09;17.30;99.90
21823;DHT22;11074;48.596;9.238;2023-05-18T15:21:35;17.30;99.90
21823;DHT22;11074;48.596;9.238;2023-05-18T15:24:01;17.20;99.90
21823;DHT22;11074;48.596;9.238;2023-05-18T15:26:26;17.20;99.90
21823;DHT22;11074;48.596;9.238;2023-05-18T15:28:52;17.20;99.90
21823;DHT22;11074;48.596;9.238;2023-05-18T15:31:18;17.20;99.90
21823;DHT22;11074;48.596;9.238;2023-05-18T15:33:43;17.20;99.90
21823;DHT22;11074;48.596;9.238;2023-05-18T15:36:09;17.20;99.90
21823;DHT22;11074;48.596;9.238;2023-05-18T15:38:35;17.10;99.90
21823;DHT22;11074;48.596;9.238;2023-05-18T15:41:01;17.10;99.90
21823;DHT22;11074;48.596;9.238;2023-05-18T15:43:27;17.00;99.90
21823;DHT22;11074;48.596;9.238;2023-05-18T15:45:54;16.90;99.90
21823;DHT22;11074;48.596;9.238;2023-05-18T15:48:20;16.90;99.90
21823;DHT22;11074;48.596;9.238;2023-05-18T15:50:46;16.80;99.90
21823;DHT22;11074;48.596;9.238;2023-05-18T15:53:11;16.80;99.90
21823;DHT22;11074;48.596;9.238;2023-05-18T15:55:37;16.70;99.90
21823;DHT22;11074;48.596;9.238;2023-05-18T15:58:03;16.70;99.90
21823;DHT22;11074;48.596;9.238;2023-05-18T16:00:28;16.70;99.90